Time;durP1;ratioP1;P1;durP2;ratioP2;P2;SDS_P1;SDS_P2;PMS_P1;PMS_P2;Temp;Humidity;BMP_temperature;BMP_pressure;BME280_temperature;BME280_humidity;BME280_pressure;Samples;Min_cycle;Max_cycle;Signal;HPM_P1;HPM_P2
2022/11/11 00:00:50;;;;;;;37.17;24.20;;;;;;;9.14;100.00;93935.16;5109305;28;20208;-71
2022/11/11 00:03:16;;;;;;;39.77;25.53;;;;;;;9.06;100.00;93932.16;5109391;28;20184;-72
2022/11/11 00:05:41;;;;;;;35.37;23.60;;;;;;;9.11;100.00;93940.06;5107569;28;20204;-72
2022/11/11 00:08:07;;;;;;;32.30;23.80;;;;;;;9.03;100.00;93932.63;5107606;28;20228;-71
2022/11/11 00:10:32;;;;;;;33.83;24.10;;;;;;;8.93;100.00;93922.06;5108953;28;20211;-70
2022/11/11 00:13:01;;;;;;;33.37;23.33;;;;;;;8.88;100.00;93929.78;5107103;28;20199;-70
2022/11/11 00:15:29;;;;;;;33.50;22.93;;;;;;;8.67;100.00;93922.69;5108267;28;20239;-70
2022/11/11 00:26:12;;;;;;;33.63;23.53;;;;;;;9.10;100.00;93943.69;5091383;28;20239;-70
2022/11/11 00:28:37;;;;;;;33.83;23.37;;;;;;;9.31;100.00;93943.78;5089086;28;20223;-71
2022/11/11 00:31:04;;;;;;;39.43;24.70;;;;;;;9.32;100.00;93936.75;5097189;28;20250;-70
2022/11/11 00:33:30;;;;;;;35.60;24.47;;;;;;;9.25;100.00;93938.72;5098862;28;20202;-70
2022/11/11 00:35:56;;;;;;;37.17;24.33;;;;;;;9.18;100.00;93946.69;5101358;28;20318;-70
2022/11/11 00:41:06;;;;;;;35.20;24.40;;;;;;;9.27;100.00;93950.50;5098609;28;20302;-70
2022/11/11 00:43:31;;;;;;;30.07;22.77;;;;;;;9.36;100.00;93943.06;5099711;28;20185;-70
2022/11/11 00:50:57;;;;;;;32.67;23.90;;;;;;;9.52;100.00;93939.66;5086267;28;20225;-70
2022/11/11 00:51:26;;;;;;;34.40;21.83;;;;;;;9.73;98.55;93938.91;5106466;28;20309;-70
2022/11/11 00:53:52;;;;;;;31.23;23.87;;;;;;;9.69;98.80;93936.00;5107407;28;20180;-71
2022/11/11 00:56:18;;;;;;;32.73;22.20;;;;;;;9.54;99.12;93911.53;5108111;28;20230;-71
2022/11/11 00:58:43;;;;;;;35.70;23.00;;;;;;;9.55;99.15;93932.16;5109814;28;20186;-71
2022/11/11 01:01:08;;;;;;;40.53;24.37;;;;;;;9.34;99.65;93908.63;5106207;28;20255;-71
2022/11/11 01:03:34;;;;;;;34.63;24.47;;;;;;;9.40;100.00;93928.53;5107977;28;20184;-71
2022/11/11 01:06:01;;;;;;;34.33;23.97;;;;;;;9.49;99.73;93938.31;5105783;28;20284;-70
2022/11/11 01:08:27;;;;;;;33.03;23.47;;;;;;;9.45;100.00;93931.19;5108985;28;20230;-71
2022/11/11 01:10:52;;;;;;;34.50;23.80;;;;;;;9.31;100.00;93927.34;5093327;28;20224;-72
2022/11/11 01:13:30;;;;;;;33.30;24.10;;;;;;;9.27;100.00;93929.66;5089347;28;20196;-71
2022/11/11 01:16:03;;;;;;;42.83;25.40;;;;;;;9.25;100.00;93934.31;5102365;28;20304;-71
2022/11/11 01:18:29;;;;;;;33.47;23.33;;;;;;;9.13;100.00;93923.19;5108301;28;20207;-71
2022/11/11 01:21:05;;;;;;;35.83;25.07;;;;;;;9.13;100.00;93927.59;5106770;28;20249;-71
2022/11/11 01:23:33;;;;;;;37.37;24.93;;;;;;;9.06;100.00;93932.16;5106536;28;20200;-71
2022/11/11 01:26:15;;;;;;;33.83;23.60;;;;;;;9.01;100.00;93925.06;5105671;28;20976;-71
2022/11/11 01:28:41;;;;;;;34.00;23.57;;;;;;;9.00;100.00;93925.28;5105671;28;20195;-71
2022/11/11 01:31:13;;;;;;;30.37;22.60;;;;;;;8.84;100.00;93913.84;5107523;28;20343;-71
2022/11/11 01:33:39;;;;;;;37.27;25.73;;;;;;;8.74;100.00;93928.50;5107851;28;20245;-71
2022/11/11 01:36:10;;;;;;;33.63;23.13;;;;;;;8.73;100.00;93922.50;5104434;28;20283;-70
2022/11/11 01:38:36;;;;;;;33.10;22.00;;;;;;;8.80;100.00;93933.56;5105872;28;20231;-71
2022/11/11 01:41:31;;;;;;;32.20;23.03;;;;;;;8.79;100.00;93926.81;5107845;28;20211;-71
2022/11/11 01:43:49;;;;;;;34.97;24.77;;;;;;;8.70;100.00;93917.00;5106685;28;20251;-70
2022/11/11 01:46:20;;;;;;;35.07;24.87;;;;;;;8.75;100.00;93924.88;5107715;28;20230;-71
2022/11/11 01:51:38;;;;;;;38.53;24.87;;;;;;;9.10;100.00;93926.25;5106933;28;20214;-71
2022/11/11 01:54:08;;;;;;;39.63;26.37;;;;;;;9.12;100.00;93937.22;5110979;28;21233;-71
2022/11/11 01:56:35;;;;;;;38.83;24.73;;;;;;;9.11;100.00;93927.84;5110415;28;20212;-71
2022/11/11 01:59:04;;;;;;;35.93;25.20;;;;;;;9.12;100.00;93939.81;5113678;28;20176;-71
2022/11/11 02:01:31;;;;;;;38.43;26.53;;;;;;;9.18;100.00;93936.25;5110957;28;20251;-72
2022/11/11 02:06:44;;;;;;;43.43;26.23;;;;;;;9.18;100.00;93935.50;5092182;28;20655;-71
2022/11/11 02:09:10;;;;;;;38.33;26.27;;;;;;;9.12;100.00;93923.44;5090725;28;20327;-71
2022/11/11 02:14:38;;;;;;;37.93;25.00;;;;;;;9.15;100.00;93938.56;5092429;28;20179;-71
2022/11/11 02:17:07;;;;;;;43.57;25.30;;;;;;;9.15;100.00;93938.56;5099324;28;20195;-71
2022/11/11 02:20:11;;;;;;;41.10;25.17;;;;;;;9.03;100.00;93932.63;5101453;28;20331;-72
2022/11/11 02:22:51;;;;;;;30.90;23.33;;;;;;;8.89;100.00;93921.75;5094173;28;20202;-71
2022/11/11 02:25:20;;;;;;;33.50;24.93;;;;;;;8.99;100.00;93929.72;5095572;28;20232;-71
2022/11/11 02:27:49;;;;;;;36.97;24.90;;;;;;;9.02;100.00;93951.91;5089824;28;20188;-73
2022/11/11 02:30:16;;;;;;;38.87;25.63;;;;;;;9.13;100.00;93938.81;5100224;28;20266;-71
2022/11/11 02:32:43;;;;;;;35.60;25.47;;;;;;;9.18;100.00;93935.50;5111802;28;20195;-70
2022/11/11 02:35:18;;;;;;;38.83;26.03;;;;;;;9.11;100.00;93924.44;5107719;28;20224;-71
2022/11/11 02:37:49;;;;;;;36.20;25.30;;;;;;;9.21;100.00;93935.78;5111953;28;20191;-73
2022/11/11 02:40:24;;;;;;;32.93;23.97;;;;;;;9.24;100.00;93934.53;5111726;28;20236;-71
2022/11/11 02:42:50;;;;;;;35.33;23.83;;;;;;;9.26;100.00;93933.28;5110013;28;20202;-72
2022/11/11 02:45:15;;;;;;;30.27;22.83;;;;;;;9.26;100.00;93922.84;5108122;28;20287;-71
2022/11/11 02:47:41;;;;;;;30.37;23.70;;;;;;;9.47;100.00;93939.56;5111268;28;20196;-72
2022/11/11 02:50:07;;;;;;;32.83;22.77;;;;;;;9.36;100.00;93917.00;5112264;28;20332;-71
2022/11/11 02:52:32;;;;;;;36.83;24.43;;;;;;;9.45;100.00;93928.59;5110500;28;20211;-71
2022/11/11 02:54:58;;;;;;;32.37;22.53;;;;;;;9.53;100.00;93936.81;5110726;28;20216;-71
2022/11/11 02:57:23;;;;;;;31.50;22.93;;;;;;;9.40;100.00;93938.97;5110799;28;20188;-72
2022/11/11 02:59:49;;;;;;;36.27;24.50;;;;;;;9.38;100.00;93931.38;5106230;28;20710;-73
2022/11/11 03:02:14;;;;;;;31.77;22.67;;;;;;;9.31;100.00;93941.16;5111015;28;20949;-72
2022/11/11 03:04:40;;;;;;;34.37;24.87;;;;;;;9.39;100.00;93942.59;5103190;28;20829;-72
2022/11/11 03:07:05;;;;;;;35.03;24.10;;;;;;;9.45;100.00;93946.84;5090750;28;20185;-72
2022/11/11 03:09:31;;;;;;;31.40;24.03;;;;;;;9.47;100.00;93940.38;5094212;28;20230;-72
2022/11/11 03:11:56;;;;;;;29.87;22.83;;;;;;;9.88;100.00;93952.16;5110493;28;20191;-72
2022/11/11 03:14:22;;;;;;;31.03;23.50;;;;;;;9.92;100.00;93944.63;5108883;28;20184;-71
2022/11/11 03:19:31;;;;;;;28.67;21.70;;;;;;;10.17;100.00;93953.59;5109416;28;20239;-71
2022/11/11 03:21:57;;;;;;;30.70;22.50;;;;;;;10.17;100.00;93951.00;5110211;28;20193;-71
2022/11/11 03:24:23;;;;;;;28.67;22.83;;;;;;;10.09;100.00;93943.56;5110507;28;20204;-72
2022/11/11 03:26:48;;;;;;;29.00;21.90;;;;;;;10.14;100.00;93959.31;5111307;28;20192;-72
2022/11/11 03:29:14;;;;;;;30.10;22.30;;;;;;;10.14;100.00;93951.47;5109025;28;20219;-72
2022/11/11 03:31:39;;;;;;;26.77;20.27;;;;;;;10.20;100.00;93950.50;5109197;28;20184;-72
2022/11/11 03:34:25;;;;;;;26.33;21.10;;;;;;;10.17;100.00;93951.00;5110266;28;20210;-72
2022/11/11 03:39:34;;;;;;;30.63;21.47;;;;;;;10.24;100.00;93946.34;5094956;28;20243;-71
2022/11/11 03:41:59;;;;;;;25.87;21.50;;;;;;;10.27;100.00;93934.66;5109683;28;20180;-71
2022/11/11 03:44:27;;;;;;;26.43;21.03;;;;;;;10.19;100.00;93935.88;5110245;28;20291;-71
2022/11/11 03:46:52;;;;;;;28.33;20.97;;;;;;;10.20;100.00;93932.22;5107837;28;20180;-72
2022/11/11 03:49:18;;;;;;;26.17;21.10;;;;;;;10.11;100.00;93944.13;5109740;28;20250;-71
2022/11/11 03:51:43;;;;;;;27.77;21.33;;;;;;;10.11;100.00;93945.94;5108339;28;20217;-71
2022/11/11 03:54:08;;;;;;;29.17;22.13;;;;;;;10.12;100.00;93937.88;5110709;28;20184;-71
2022/11/11 03:56:34;;;;;;;27.47;20.23;;;;;;;10.03;100.00;93928.06;5109163;28;20185;-72
2022/11/11 03:58:59;;;;;;;27.80;21.67;;;;;;;10.10;100.00;93939.16;5110003;28;20276;-71
2022/11/11 04:12:30;;;;;;;34.13;23.03;;;;;;;9.57;100.00;93880.53;5110080;28;20218;-73
2022/11/11 04:17:39;;;;;;;32.80;22.33;;;;;;;9.90;100.00;93936.28;5108578;28;20255;-72
2022/11/11 04:22:52;;;;;;;28.97;22.43;;;;;;;9.90;100.00;93939.66;5107891;28;20195;-72
2022/11/11 04:30:46;;;;;;;27.23;21.60;;;;;;;10.04;100.00;93929.66;5108581;28;20235;-71
2022/11/11 04:33:11;;;;;;;26.23;20.93;;;;;;;10.00;100.00;93925.94;5109924;28;20240;-71
2022/11/11 04:35:37;;;;;;;26.70;20.33;;;;;;;9.95;100.00;93915.44;5107407;28;20232;-72
2022/11/11 04:41:04;;;;;;;27.83;20.70;;;;;;;10.01;100.00;93936.13;5109052;28;20323;-68
2022/11/11 04:43:30;;;;;;;25.57;20.93;;;;;;;9.85;100.00;93910.91;5108237;28;20192;-68
2022/11/11 04:45:59;;;;;;;24.27;20.57;;;;;;;10.06;100.00;93954.47;5109292;28;20216;-69
2022/11/11 04:48:25;;;;;;;29.43;20.37;;;;;;;10.13;100.00;93949.09;5109478;28;20172;-69
2022/11/11 04:50:50;;;;;;;25.47;21.60;;;;;;;10.09;100.00;93946.19;5107221;28;20249;-68
2022/11/11 04:53:16;;;;;;;26.03;20.57;;;;;;;10.05;100.00;93952.91;5108658;28;20195;-68
2022/11/11 04:58:29;;;;;;;25.37;20.13;;;;;;;10.07;100.00;93947.44;5107402;28;20252;-68
2022/11/11 05:00:54;;;;;;;24.10;20.27;;;;;;;10.03;100.00;93948.94;5107244;28;20212;-68
2022/11/11 05:03:23;;;;;;;24.47;19.57;;;;;;;9.94;100.00;93959.03;5108606;28;20188;-69
2022/11/11 05:08:55;;;;;;;23.57;19.97;;;;;;;9.94;100.00;93960.84;5108128;28;20242;-68
2022/11/11 05:11:22;;;;;;;25.30;20.50;;;;;;;9.92;100.00;93932.38;5106086;28;20300;-67
2022/11/11 05:22:12;;;;;;;23.90;20.37;;;;;;;10.05;99.57;93952.91;5105815;28;20194;-68
2022/11/11 05:27:21;;;;;;;25.07;22.07;;;;;;;10.15;98.53;93960.09;5104849;28;20190;-69
2022/11/11 05:29:47;;;;;;;25.17;20.43;;;;;;;10.07;98.75;93970.94;5107614;28;20243;-71
2022/11/11 05:32:17;;;;;;;25.57;20.33;;;;;;;10.05;98.91;93968.56;5107709;28;20180;-69
2022/11/11 05:34:43;;;;;;;25.93;19.50;;;;;;;10.20;98.62;93976.59;5107672;28;20220;-70
2022/11/11 05:37:08;;;;;;;23.33;19.97;;;;;;;10.16;98.61;93975.53;5109115;28;20198;-69
2022/11/11 05:39:34;;;;;;;22.63;18.43;;;;;;;10.27;97.34;93974.63;5103516;28;20232;-68
2022/11/11 05:41:59;;;;;;;21.47;18.77;;;;;;;10.46;95.95;93980.31;5107223;28;20203;-69
2022/11/11 05:44:24;;;;;;;23.13;18.33;;;;;;;10.43;96.72;93991.25;5107028;28;20184;-70
2022/11/11 05:46:50;;;;;;;21.23;18.77;;;;;;;10.16;96.43;93959.84;5106374;28;20217;-70
2022/11/11 05:49:15;;;;;;;23.23;18.67;;;;;;;10.45;96.32;93995.19;5106619;28;20219;-69
2022/11/11 05:51:44;;;;;;;29.13;22.00;;;;;;;10.28;97.43;93994.44;5105070;28;20222;-69
2022/11/11 05:54:10;;;;;;;27.27;22.73;;;;;;;10.31;98.73;94001.00;5104971;28;20216;-69
2022/11/11 05:56:35;;;;;;;31.07;21.97;;;;;;;10.31;99.39;94001.78;5105069;28;20184;-70
2022/11/11 05:59:01;;;;;;;33.93;23.73;;;;;;;10.41;98.64;93994.06;5104802;28;20259;-67
2022/11/11 06:01:26;;;;;;;35.33;23.67;;;;;;;10.42;98.77;94013.94;5085762;28;20228;-68
2022/11/11 06:03:51;;;;;;;34.27;23.63;;;;;;;10.20;100.00;94020.97;5085130;28;20185;-68
2022/11/11 06:06:17;;;;;;;32.20;24.30;;;;;;;10.17;100.00;94011.00;5102604;28;20235;-69
2022/11/11 06:08:42;;;;;;;29.37;21.87;;;;;;;10.14;100.00;94021.94;5106209;28;20217;-69
2022/11/11 06:11:07;;;;;;;32.53;22.57;;;;;;;10.03;100.00;94014.97;5106542;28;20224;-68
2022/11/11 06:13:33;;;;;;;24.40;20.83;;;;;;;10.22;98.47;94026.75;5108416;28;20222;-67
2022/11/11 06:15:59;;;;;;;25.83;19.90;;;;;;;10.22;98.38;94025.94;5102469;28;20224;-70
2022/11/11 06:18:24;;;;;;;26.17;22.13;;;;;;;10.23;98.79;94038.75;5105485;28;20218;-70
2022/11/11 06:20:53;;;;;;;27.80;21.57;;;;;;;10.25;99.93;94036.69;5091063;28;20228;-71
2022/11/11 06:23:19;;;;;;;29.70;21.97;;;;;;;10.09;99.88;94027.06;5086511;28;20193;-70
2022/11/11 06:28:28;;;;;;;31.17;22.70;;;;;;;10.00;100.00;94009.44;5104679;28;20256;-70
2022/11/11 06:30:53;;;;;;;32.97;23.17;;;;;;;9.99;100.00;94019.09;5104402;28;20225;-69
2022/11/11 06:33:20;;;;;;;31.67;23.63;;;;;;;10.25;100.00;94060.19;5107164;28;20183;-68
2022/11/11 06:35:46;;;;;;;30.80;22.33;;;;;;;10.42;99.71;94063.56;5106065;28;20296;-70
2022/11/11 06:38:12;;;;;;;32.20;23.63;;;;;;;10.33;100.00;94067.63;5108443;28;20216;-69
2022/11/11 06:40:37;;;;;;;27.97;22.20;;;;;;;10.20;100.00;94073.16;5107928;28;20216;-71
2022/11/11 06:43:02;;;;;;;33.37;24.47;;;;;;;10.21;100.00;94077.34;5108218;28;20208;-71
2022/11/11 06:45:29;;;;;;;26.73;22.10;;;;;;;10.20;100.00;94081.00;5109099;28;20274;-71
2022/11/11 06:47:55;;;;;;;33.17;24.67;;;;;;;10.20;100.00;94081.00;5109170;28;20251;-70
2022/11/11 06:50:20;;;;;;;34.10;24.13;;;;;;;10.26;100.00;94080.03;5107545;28;20284;-70
2022/11/11 06:52:46;;;;;;;34.37;24.27;;;;;;;10.07;100.00;94070.88;5110267;28;20266;-70
2022/11/11 06:55:11;;;;;;;30.20;24.50;;;;;;;10.24;100.00;94071.63;5109709;28;20220;-71
2022/11/11 06:57:37;;;;;;;36.40;24.77;;;;;;;10.17;100.00;94065.00;5110175;28;20188;-71
2022/11/11 07:00:04;;;;;;;33.07;23.57;;;;;;;9.99;100.00;94068.66;5110044;28;20239;-71
2022/11/11 07:02:30;;;;;;;31.70;23.80;;;;;;;10.14;100.00;94061.06;5108938;28;20208;-71
2022/11/11 07:04:55;;;;;;;34.23;24.23;;;;;;;10.15;100.00;94073.09;5109573;28;20243;-70
2022/11/11 07:07:21;;;;;;;39.43;25.53;;;;;;;10.12;100.00;94076.19;5108149;28;20197;-70
2022/11/11 07:09:46;;;;;;;36.33;25.13;;;;;;;10.06;100.00;94055.44;5110547;28;20229;-70
2022/11/11 07:12:12;;;;;;;36.53;24.47;;;;;;;10.11;100.00;94066.78;5110441;28;20188;-69
2022/11/11 07:14:37;;;;;;;39.37;25.03;;;;;;;10.12;100.00;94067.56;5103708;28;20228;-71
2022/11/11 07:17:03;;;;;;;37.97;24.03;;;;;;;10.36;100.00;94074.97;5110329;28;20185;-71
2022/11/11 07:19:29;;;;;;;30.90;23.43;;;;;;;9.99;100.00;94076.50;5108436;28;20242;-71
2022/11/11 07:21:54;;;;;;;39.57;25.67;;;;;;;9.90;100.00;94079.75;5108805;28;20244;-70
2022/11/11 07:24:20;;;;;;;35.63;25.13;;;;;;;10.01;100.00;94082.25;5108389;28;20245;-69
2022/11/11 07:26:45;;;;;;;32.30;23.40;;;;;;;9.92;100.00;94093.31;5111211;28;20187;-69
2022/11/11 07:29:13;;;;;;;25.77;19.63;;;;;;;9.66;100.00;94079.09;5107421;28;20362;-70
2022/11/11 07:31:38;;;;;;;26.77;21.30;;;;;;;9.71;100.00;94100.06;5108436;28;20176;-69
2022/11/11 07:34:04;;;;;;;24.57;18.90;;;;;;;9.73;100.00;94100.59;5108969;28;20178;-70
2022/11/11 07:36:29;;;;;;;30.40;23.73;;;;;;;9.73;100.00;94095.38;5110146;28;20226;-68
2022/11/11 07:38:54;;;;;;;28.90;21.53;;;;;;;9.86;100.00;94109.91;5109174;28;20180;-69
2022/11/11 07:41:20;;;;;;;26.67;20.43;;;;;;;9.71;100.00;94102.66;5109753;28;20224;-70
2022/11/11 07:43:45;;;;;;;25.67;20.13;;;;;;;9.69;100.00;94109.91;5109025;28;20218;-70
2022/11/11 07:46:10;;;;;;;25.03;19.67;;;;;;;9.68;100.00;94108.34;5109142;28;20231;-70
2022/11/11 07:48:36;;;;;;;29.63;21.00;;;;;;;9.28;100.00;94060.72;5108863;28;20207;-70
2022/11/11 07:51:01;;;;;;;26.37;20.17;;;;;;;9.58;100.00;94105.56;5108299;28;20261;-69
2022/11/11 07:53:27;;;;;;;23.33;19.43;;;;;;;9.60;100.00;94116.56;5108143;28;20199;-69
2022/11/11 07:55:53;;;;;;;28.00;20.43;;;;;;;9.82;100.00;94125.28;5108292;28;20298;-70
2022/11/11 07:58:18;;;;;;;24.37;19.70;;;;;;;9.60;100.00;94121.75;5109516;28;20230;-70
2022/11/11 08:00:44;;;;;;;28.30;20.30;;;;;;;9.67;100.00;94109.34;5109363;28;20212;-70
2022/11/11 08:03:09;;;;;;;24.90;20.13;;;;;;;9.74;100.00;94128.25;5109089;28;20195;-69
2022/11/11 08:05:35;;;;;;;23.83;19.30;;;;;;;9.66;100.00;94132.03;5096727;28;20221;-69
2022/11/11 08:08:07;;;;;;;27.17;20.27;;;;;;;9.45;100.00;94118.88;5089470;28;20180;-71
2022/11/11 08:10:33;;;;;;;24.83;19.60;;;;;;;9.42;100.00;94140.19;5094797;28;20243;-68
2022/11/11 08:15:43;;;;;;;22.60;18.70;;;;;;;9.30;100.00;94118.63;5093009;28;20239;-69
2022/11/11 08:18:09;;;;;;;20.40;18.20;;;;;;;9.49;100.00;94143.47;5099567;28;20189;-68
2022/11/11 08:20:35;;;;;;;25.87;18.70;;;;;;;9.53;100.00;94147.97;5095773;28;20228;-69
2022/11/11 08:23:03;;;;;;;22.40;20.00;;;;;;;9.53;100.00;94142.78;5098710;28;20223;-67
2022/11/11 08:25:29;;;;;;;21.93;19.13;;;;;;;9.42;100.00;94161.06;5102510;28;20227;-69
2022/11/11 08:28:04;;;;;;;24.73;19.97;;;;;;;9.39;100.00;94141.47;5107529;28;20207;-71
2022/11/11 08:30:30;;;;;;;28.13;19.10;;;;;;;9.49;100.00;94148.69;5107407;28;20263;-69
2022/11/11 08:33:03;;;;;;;24.47;19.83;;;;;;;9.55;100.00;94137.31;5108611;28;20255;-70
2022/11/11 08:35:29;;;;;;;24.47;18.33;;;;;;;9.59;100.00;94151.47;5105940;28;20255;-69
2022/11/11 08:37:55;;;;;;;23.73;19.50;;;;;;;9.64;100.00;94147.13;5107760;28;20202;-69
2022/11/11 08:40:21;;;;;;;22.77;18.93;;;;;;;9.69;100.00;94146.44;5107767;28;20279;-69
2022/11/11 08:42:46;;;;;;;22.37;18.30;;;;;;;9.86;100.00;94149.84;5108272;28;20188;-69
2022/11/11 08:45:12;;;;;;;22.07;18.13;;;;;;;9.67;100.00;94156.28;5107366;28;20223;-69
2022/11/11 08:47:37;;;;;;;27.17;18.90;;;;;;;9.84;100.00;94159.72;5109204;28;20189;-69
2022/11/11 08:50:05;;;;;;;22.43;18.93;;;;;;;9.68;100.00;94155.28;5107334;28;20582;-72
2022/11/11 08:52:31;;;;;;;23.77;18.40;;;;;;;9.74;100.00;94160.34;5108561;28;20836;-69
2022/11/11 08:54:58;;;;;;;22.27;19.33;;;;;;;9.79;100.00;94162.22;5105758;28;20256;-70
2022/11/11 08:57:23;;;;;;;23.90;18.97;;;;;;;9.82;100.00;94135.72;5109551;28;20176;-70
2022/11/11 08:59:48;;;;;;;19.90;17.87;;;;;;;9.91;100.00;94144.72;5106739;28;20261;-68
2022/11/11 09:02:14;;;;;;;21.13;18.53;;;;;;;10.24;98.84;94149.19;5106681;28;20212;-68
2022/11/11 09:04:40;;;;;;;20.30;18.17;;;;;;;10.29;96.23;94138.81;5106321;28;20242;-68
2022/11/11 09:07:09;;;;;;;21.00;17.20;;;;;;;10.33;94.77;94145.94;5107351;28;20285;-69
2022/11/11 09:09:35;;;;;;;20.97;17.97;;;;;;;10.19;95.29;94147.28;5107431;28;20229;-69
2022/11/11 09:12:01;;;;;;;20.57;16.67;;;;;;;10.22;94.54;94146.00;5105620;28;20199;-70
2022/11/11 09:14:26;;;;;;;17.27;15.63;;;;;;;10.35;93.91;94130.03;5107786;28;20232;-69
2022/11/11 09:16:51;;;;;;;18.90;16.20;;;;;;;10.58;92.85;94133.22;5107060;28;20187;-70
2022/11/11 09:19:17;;;;;;;17.90;15.87;;;;;;;10.55;92.23;94131.06;5107211;28;20188;-69
2022/11/11 09:21:42;;;;;;;17.70;15.97;;;;;;;10.37;93.28;94147.00;5124077;28;20215;-70
2022/11/11 09:24:08;;;;;;;19.83;17.30;;;;;;;10.54;92.27;94137.34;5107048;28;20215;-70
2022/11/11 09:26:33;;;;;;;17.90;16.00;;;;;;;10.50;92.80;94141.47;5107333;28;20196;-69
2022/11/11 09:28:58;;;;;;;17.87;16.10;;;;;;;10.44;92.75;94145.03;5107653;28;20207;-69
2022/11/11 09:31:24;;;;;;;17.23;15.47;;;;;;;10.20;93.00;94133.19;5105624;28;20220;-69
2022/11/11 09:33:50;;;;;;;19.07;16.30;;;;;;;10.30;93.59;94138.56;5107713;28;20193;-69
2022/11/11 09:36:15;;;;;;;17.87;16.07;;;;;;;10.70;92.98;94144.34;5106454;28;20211;-68
2022/11/11 09:38:41;;;;;;;17.97;16.17;;;;;;;10.54;92.08;94139.94;5108802;28;20229;-67
2022/11/11 09:41:44;;;;;;;17.07;15.37;;;;;;;10.49;92.50;94146.94;5107589;28;20227;-68
2022/11/11 09:44:51;;;;;;;17.37;15.57;;;;;;;10.68;92.48;94135.16;5107484;28;20198;-69
2022/11/11 09:47:26;;;;;;;16.73;15.03;;;;;;;10.60;92.16;94117.31;5101125;28;20193;-68
2022/11/11 09:50:20;;;;;;;17.53;15.73;;;;;;;11.17;91.04;94123.75;5107796;28;20224;-68
2022/11/11 09:52:48;;;;;;;16.63;15.10;;;;;;;10.99;89.04;94124.84;5107097;28;20188;-68
2022/11/11 09:55:20;;;;;;;16.70;14.90;;;;;;;11.28;88.51;94126.22;5106947;28;20231;-68
2022/11/11 09:57:51;;;;;;;15.43;13.93;;;;;;;11.19;89.53;94119.84;5108129;28;20184;-67
2022/11/11 10:00:24;;;;;;;17.27;15.67;;;;;;;11.15;88.28;94103.09;5107218;28;20365;-68
2022/11/11 10:02:54;;;;;;;16.30;14.70;;;;;;;10.90;88.97;94115.88;5121915;28;20191;-67
2022/11/11 10:05:26;;;;;;;17.60;15.80;;;;;;;10.60;90.50;94110.25;5107550;28;20220;-67
2022/11/11 10:08:14;;;;;;;17.27;15.60;;;;;;;10.65;90.48;94115.56;5106970;28;20207;-66
2022/11/11 10:10:46;;;;;;;18.07;16.17;;;;;;;10.52;90.17;94120.34;5104303;28;20254;-69
2022/11/11 10:13:30;;;;;;;17.73;15.70;;;;;;;10.49;91.49;94121.59;5106586;28;20203;-70
2022/11/11 10:16:01;;;;;;;19.10;17.23;;;;;;;10.66;90.31;94117.13;5109142;28;20223;-68
2022/11/11 10:18:40;;;;;;;20.33;17.83;;;;;;;10.94;90.91;94124.03;5109326;28;20250;-67
2022/11/11 10:21:14;;;;;;;18.73;16.87;;;;;;;10.62;88.33;94110.81;5110483;28;20232;-68
2022/11/11 10:23:42;;;;;;;17.70;15.13;;;;;;;10.94;87.72;94116.19;5111447;28;20195;-68
2022/11/11 10:26:38;;;;;;;17.70;16.03;;;;;;;11.21;86.99;94111.78;5112893;28;20250;-67
2022/11/11 10:29:09;;;;;;;16.73;14.67;;;;;;;11.26;84.12;94085.69;5107811;28;20255;-70
2022/11/11 10:31:35;;;;;;;15.67;14.30;;;;;;;12.10;81.41;94115.50;5090941;28;20214;-71
2022/11/11 10:34:11;;;;;;;16.33;14.93;;;;;;;11.99;80.65;94111.22;5089777;28;20181;-71
2022/11/11 10:36:50;;;;;;;15.93;14.37;;;;;;;11.51;82.58;94108.69;5099760;28;20216;-71
2022/11/11 10:39:24;;;;;;;16.20;14.70;;;;;;;11.60;82.83;94079.22;5098811;28;20195;-71
2022/11/11 10:41:51;;;;;;;15.27;13.93;;;;;;;11.75;83.48;94112.59;5109210;28;20219;-71
2022/11/11 10:44:30;;;;;;;16.73;15.33;;;;;;;12.07;81.23;94108.16;5106574;28;20202;-71
2022/11/11 10:47:14;;;;;;;15.93;14.63;;;;;;;12.35;80.79;94105.22;5110223;28;20266;-70
2022/11/11 10:49:49;;;;;;;18.07;16.17;;;;;;;12.52;79.01;94111.06;5105681;28;20236;-71
2022/11/11 10:52:23;;;;;;;19.43;17.73;;;;;;;12.32;79.93;94105.72;5097661;28;20193;-69
2022/11/11 10:54:52;;;;;;;17.23;15.80;;;;;;;12.17;80.00;94105.63;5083356;28;20236;-68
2022/11/11 10:57:28;;;;;;;17.27;14.37;;;;;;;12.64;79.62;94109.03;5087550;28;20200;-69
2022/11/11 11:00:01;;;;;;;15.77;14.37;;;;;;;11.83;80.39;94093.84;5095531;28;20233;-67
2022/11/11 11:02:33;;;;;;;14.80;13.50;;;;;;;11.60;80.85;94101.97;5107228;28;20217;-67
2022/11/11 11:05:21;;;;;;;15.67;14.37;;;;;;;11.64;82.50;94096.03;5110237;28;20240;-67
2022/11/11 11:07:52;;;;;;;16.53;15.13;;;;;;;11.71;80.20;94083.53;5104445;28;20204;-67
2022/11/11 11:10:22;;;;;;;16.97;15.27;;;;;;;11.83;80.07;94091.22;5098549;28;20245;-67
2022/11/11 11:13:00;;;;;;;16.30;14.70;;;;;;;12.10;78.99;94097.19;5087529;28;20253;-67
2022/11/11 11:15:28;;;;;;;15.17;13.87;;;;;;;11.41;80.64;94093.69;5097320;28;20232;-67
2022/11/11 11:18:01;;;;;;;15.70;14.10;;;;;;;11.65;80.68;94088.97;5106694;28;20219;-66
2022/11/11 11:20:27;;;;;;;14.33;13.10;;;;;;;11.50;78.12;94088.81;5108867;28;20299;-66
2022/11/11 11:22:56;;;;;;;15.47;14.03;;;;;;;11.55;78.98;94081.00;5105709;28;20201;-67
2022/11/11 11:25:22;;;;;;;15.70;14.23;;;;;;;11.63;77.82;94070.91;5108133;28;20239;-65
2022/11/11 11:27:52;;;;;;;15.10;13.80;;;;;;;11.83;77.85;94076.28;5107647;28;20348;-67
2022/11/11 11:30:20;;;;;;;15.80;14.30;;;;;;;12.02;74.97;94074.88;5106225;28;20275;-70
2022/11/11 11:33:12;;;;;;;15.23;13.73;;;;;;;12.13;73.88;94070.50;5105969;28;20205;-69
2022/11/11 11:35:40;;;;;;;16.10;14.60;;;;;;;11.85;73.83;94070.81;5105171;28;20236;-69
2022/11/11 11:38:07;;;;;;;14.50;13.30;;;;;;;11.88;75.29;94067.69;5106503;28;20187;-68
2022/11/11 11:40:55;;;;;;;15.80;14.13;;;;;;;11.94;72.96;94067.47;5094745;28;20234;-68
2022/11/11 11:43:36;;;;;;;14.77;13.37;;;;;;;11.82;72.84;94055.63;5087961;28;20188;-68
2022/11/11 11:46:15;;;;;;;13.57;12.47;;;;;;;12.04;71.94;94069.38;5104036;28;20239;-71
2022/11/11 11:48:53;;;;;;;13.20;12.00;;;;;;;11.87;70.92;94050.41;5107471;28;20257;-69
2022/11/11 11:51:35;;;;;;;13.83;12.80;;;;;;;12.07;71.93;94058.41;5106589;28;20993;-69
2022/11/11 11:54:28;;;;;;;14.27;13.07;;;;;;;12.18;71.06;94058.25;5107281;28;20202;-69
2022/11/11 11:56:59;;;;;;;13.80;12.67;;;;;;;11.86;71.78;94060.09;5107534;28;20210;-68
2022/11/11 11:59:30;;;;;;;15.03;13.80;;;;;;;12.15;71.06;94071.03;5108285;28;20189;-68
2022/11/11 12:02:01;;;;;;;13.43;12.40;;;;;;;11.85;71.81;94065.56;5107453;28;20211;-70
2022/11/11 12:05:04;;;;;;;14.17;12.70;;;;;;;12.07;71.65;94074.13;5108764;28;20244;-69
2022/11/11 12:07:36;;;;;;;15.53;13.93;;;;;;;12.13;71.81;94071.28;5108008;28;20631;-69
2022/11/11 12:10:22;;;;;;;14.57;13.37;;;;;;;11.92;71.31;94072.16;5108536;28;20274;-69
2022/11/11 12:12:54;;;;;;;14.43;12.67;;;;;;;11.87;71.54;94068.75;5108209;28;20255;-69
2022/11/11 12:15:27;;;;;;;14.80;13.43;;;;;;;11.85;71.26;94058.53;5099010;28;20263;-69
2022/11/11 12:17:58;;;;;;;14.60;13.20;;;;;;;11.83;72.36;94051.97;5087745;28;20273;-67
2022/11/11 12:20:27;;;;;;;14.80;13.43;;;;;;;11.57;73.59;94040.47;5098989;28;20227;-67
2022/11/11 12:23:16;;;;;;;13.20;12.10;;;;;;;11.83;72.68;94044.13;5106307;28;20193;-68
2022/11/11 12:25:57;;;;;;;14.07;12.67;;;;;;;11.65;72.08;94053.13;5107241;28;20232;-68
2022/11/11 12:28:45;;;;;;;14.00;12.83;;;;;;;11.80;73.44;94052.47;5106672;28;20177;-68
2022/11/11 12:31:13;;;;;;;13.17;12.17;;;;;;;11.75;72.51;94041.97;5101605;28;20219;-67
2022/11/11 12:33:42;;;;;;;12.93;11.73;;;;;;;11.94;71.36;94040.53;5106308;28;20191;-68
2022/11/11 12:36:20;;;;;;;13.97;12.97;;;;;;;11.77;71.37;94045.09;5105669;28;20240;-69
2022/11/11 12:38:54;;;;;;;14.30;13.03;;;;;;;11.75;71.46;94041.97;5103184;28;20192;-67
2022/11/11 12:41:46;;;;;;;14.33;12.87;;;;;;;11.81;73.33;94039.13;5087607;28;20225;-67